sensor_id;sensor_type;location;lat;lon;timestamp;P1;durP1;ratioP1;P2;durP2;ratioP2
54177;SDS011;40085;53.004;6.770;2023-05-10T00:01:22;4.80;;;2.67;;
54177;SDS011;40085;53.004;6.770;2023-05-10T00:03:48;5.63;;;2.38;;
54177;SDS011;40085;53.004;6.770;2023-05-10T00:06:14;6.25;;;2.90;;
54177;SDS011;40085;53.004;6.770;2023-05-10T00:08:39;4.35;;;2.38;;
54177;SDS011;40085;53.004;6.770;2023-05-10T00:11:05;4.20;;;2.72;;
54177;SDS011;40085;53.004;6.770;2023-05-10T00:13:31;4.07;;;2.40;;
54177;SDS011;40085;53.004;6.770;2023-05-10T00:15:57;5.93;;;2.70;;
54177;SDS011;40085;53.004;6.770;2023-05-10T00:18:22;4.25;;;2.80;;
54177;SDS011;40085;53.004;6.770;2023-05-10T00:20:48;3.97;;;2.47;;
54177;SDS011;40085;53.004;6.770;2023-05-10T00:23:13;4.85;;;2.88;;
54177;SDS011;40085;53.004;6.770;2023-05-10T00:25:39;3.88;;;2.22;;
54177;SDS011;40085;53.004;6.770;2023-05-10T00:28:05;5.53;;;2.92;;
54177;SDS011;40085;53.004;6.770;2023-05-10T00:30:31;4.38;;;2.72;;
54177;SDS011;40085;53.004;6.770;2023-05-10T00:32:56;5.88;;;2.97;;
54177;SDS011;40085;53.004;6.770;2023-05-10T00:35:22;4.18;;;2.47;;
54177;SDS011;40085;53.004;6.770;2023-05-10T00:37:47;5.32;;;2.95;;
54177;SDS011;40085;53.004;6.770;2023-05-10T00:40:13;6.18;;;3.20;;
54177;SDS011;40085;53.004;6.770;2023-05-10T00:42:39;6.38;;;3.38;;
54177;SDS011;40085;53.004;6.770;2023-05-10T00:45:05;6.35;;;2.90;;
54177;SDS011;40085;53.004;6.770;2023-05-10T00:47:31;4.25;;;2.90;;
54177;SDS011;40085;53.004;6.770;2023-05-10T00:49:57;5.72;;;2.80;;
54177;SDS011;40085;53.004;6.770;2023-05-10T00:52:25;5.32;;;3.10;;
54177;SDS011;40085;53.004;6.770;2023-05-10T00:54:52;4.43;;;3.03;;
54177;SDS011;40085;53.004;6.770;2023-05-10T00:57:18;4.82;;;2.78;;
54177;SDS011;40085;53.004;6.770;2023-05-10T00:59:43;10.05;;;3.15;;
54177;SDS011;40085;53.004;6.770;2023-05-10T01:02:09;4.32;;;2.78;;
54177;SDS011;40085;53.004;6.770;2023-05-10T01:04:35;3.92;;;2.88;;
54177;SDS011;40085;53.004;6.770;2023-05-10T01:07:02;4.05;;;2.78;;
54177;SDS011;40085;53.004;6.770;2023-05-10T01:09:28;5.28;;;3.22;;
54177;SDS011;40085;53.004;6.770;2023-05-10T01:11:53;5.03;;;3.00;;
54177;SDS011;40085;53.004;6.770;2023-05-10T01:14:20;4.93;;;3.03;;
54177;SDS011;40085;53.004;6.770;2023-05-10T01:16:46;5.15;;;2.70;;
54177;SDS011;40085;53.004;6.770;2023-05-10T01:19:23;6.57;;;3.00;;
54177;SDS011;40085;53.004;6.770;2023-05-10T01:24:38;3.88;;;2.78;;
54177;SDS011;40085;53.004;6.770;2023-05-10T01:43:17;5.90;;;3.05;;
54177;SDS011;40085;53.004;6.770;2023-05-10T01:46:03;3.88;;;2.40;;
54177;SDS011;40085;53.004;6.770;2023-05-10T01:48:40;5.35;;;2.72;;
54177;SDS011;40085;53.004;6.770;2023-05-10T01:51:13;7.50;;;3.30;;
54177;SDS011;40085;53.004;6.770;2023-05-10T01:53:41;5.30;;;2.90;;
54177;SDS011;40085;53.004;6.770;2023-05-10T01:56:09;6.10;;;3.13;;
54177;SDS011;40085;53.004;6.770;2023-05-10T01:58:37;4.43;;;2.92;;
54177;SDS011;40085;53.004;6.770;2023-05-10T02:01:05;4.10;;;2.67;;
54177;SDS011;40085;53.004;6.770;2023-05-10T02:03:33;5.95;;;3.03;;
54177;SDS011;40085;53.004;6.770;2023-05-10T02:06:00;6.85;;;3.17;;
54177;SDS011;40085;53.004;6.770;2023-05-10T02:08:28;5.32;;;2.85;;
54177;SDS011;40085;53.004;6.770;2023-05-10T02:10:55;5.28;;;2.88;;
54177;SDS011;40085;53.004;6.770;2023-05-10T02:13:22;4.65;;;2.90;;
54177;SDS011;40085;53.004;6.770;2023-05-10T02:15:49;6.50;;;3.08;;
54177;SDS011;40085;53.004;6.770;2023-05-10T02:18:16;4.53;;;3.05;;
54177;SDS011;40085;53.004;6.770;2023-05-10T02:20:43;5.25;;;3.20;;
54177;SDS011;40085;53.004;6.770;2023-05-10T02:23:11;4.75;;;3.05;;
54177;SDS011;40085;53.004;6.770;2023-05-10T02:25:38;5.28;;;3.03;;
54177;SDS011;40085;53.004;6.770;2023-05-10T02:28:04;10.85;;;2.95;;
54177;SDS011;40085;53.004;6.770;2023-05-10T02:30:32;8.25;;;3.40;;
54177;SDS011;40085;53.004;6.770;2023-05-10T02:32:59;7.32;;;3.30;;
54177;SDS011;40085;53.004;6.770;2023-05-10T02:35:26;6.63;;;3.40;;
54177;SDS011;40085;53.004;6.770;2023-05-10T02:37:53;5.40;;;3.30;;
54177;SDS011;40085;53.004;6.770;2023-05-10T02:40:19;6.07;;;3.60;;
54177;SDS011;40085;53.004;6.770;2023-05-10T02:42:47;4.70;;;2.97;;
54177;SDS011;40085;53.004;6.770;2023-05-10T02:45:19;5.28;;;3.20;;
54177;SDS011;40085;53.004;6.770;2023-05-10T02:47:48;5.80;;;2.72;;
54177;SDS011;40085;53.004;6.770;2023-05-10T02:50:14;5.75;;;3.17;;
54177;SDS011;40085;53.004;6.770;2023-05-10T02:52:42;7.18;;;3.63;;
54177;SDS011;40085;53.004;6.770;2023-05-10T02:55:11;6.50;;;3.33;;
54177;SDS011;40085;53.004;6.770;2023-05-10T02:57:45;8.57;;;2.97;;
54177;SDS011;40085;53.004;6.770;2023-05-10T03:00:15;6.40;;;3.67;;
54177;SDS011;40085;53.004;6.770;2023-05-10T03:02:41;5.45;;;3.13;;
54177;SDS011;40085;53.004;6.770;2023-05-10T03:05:07;8.10;;;3.60;;
54177;SDS011;40085;53.004;6.770;2023-05-10T03:07:33;5.43;;;3.22;;
54177;SDS011;40085;53.004;6.770;2023-05-10T03:09:58;6.88;;;3.47;;
54177;SDS011;40085;53.004;6.770;2023-05-10T03:15:33;6.70;;;3.72;;
54177;SDS011;40085;53.004;6.770;2023-05-10T03:18:20;6.45;;;3.75;;
54177;SDS011;40085;53.004;6.770;2023-05-10T03:20:48;4.72;;;3.30;;
54177;SDS011;40085;53.004;6.770;2023-05-10T03:25:53;5.50;;;3.15;;
54177;SDS011;40085;53.004;6.770;2023-05-10T03:28:20;4.47;;;2.60;;
54177;SDS011;40085;53.004;6.770;2023-05-10T03:30:46;6.20;;;3.40;;
54177;SDS011;40085;53.004;6.770;2023-05-10T03:33:12;7.32;;;4.03;;
54177;SDS011;40085;53.004;6.770;2023-05-10T03:35:38;5.32;;;3.17;;
54177;SDS011;40085;53.004;6.770;2023-05-10T03:38:04;7.78;;;4.13;;
54177;SDS011;40085;53.004;6.770;2023-05-10T03:40:30;6.57;;;3.63;;
54177;SDS011;40085;53.004;6.770;2023-05-10T03:42:57;7.65;;;3.90;;
54177;SDS011;40085;53.004;6.770;2023-05-10T03:45:24;7.60;;;3.58;;
54177;SDS011;40085;53.004;6.770;2023-05-10T03:47:49;5.00;;;3.25;;
54177;SDS011;40085;53.004;6.770;2023-05-10T03:50:15;7.40;;;3.83;;
54177;SDS011;40085;53.004;6.770;2023-05-10T03:52:40;7.20;;;4.00;;
54177;SDS011;40085;53.004;6.770;2023-05-10T03:55:06;6.88;;;3.17;;
54177;SDS011;40085;53.004;6.770;2023-05-10T03:57:32;9.23;;;4.30;;
54177;SDS011;40085;53.004;6.770;2023-05-10T03:59:58;7.57;;;3.63;;
54177;SDS011;40085;53.004;6.770;2023-05-10T04:02:24;5.38;;;3.17;;
54177;SDS011;40085;53.004;6.770;2023-05-10T04:04:50;7.97;;;3.45;;
54177;SDS011;40085;53.004;6.770;2023-05-10T04:07:16;5.50;;;3.67;;
54177;SDS011;40085;53.004;6.770;2023-05-10T04:09:41;5.90;;;3.78;;
54177;SDS011;40085;53.004;6.770;2023-05-10T04:12:07;6.97;;;4.10;;
54177;SDS011;40085;53.004;6.770;2023-05-10T04:14:33;5.70;;;3.30;;
54177;SDS011;40085;53.004;6.770;2023-05-10T04:16:58;6.25;;;3.97;;
54177;SDS011;40085;53.004;6.770;2023-05-10T04:19:24;6.22;;;3.40;;
54177;SDS011;40085;53.004;6.770;2023-05-10T04:21:53;7.00;;;3.85;;
54177;SDS011;40085;53.004;6.770;2023-05-10T04:24:19;8.50;;;3.17;;
54177;SDS011;40085;53.004;6.770;2023-05-10T04:26:44;4.68;;;3.00;;
54177;SDS011;40085;53.004;6.770;2023-05-10T04:29:10;6.22;;;2.95;;
54177;SDS011;40085;53.004;6.770;2023-05-10T04:31:36;5.90;;;3.05;;
54177;SDS011;40085;53.004;6.770;2023-05-10T04:34:01;5.65;;;2.83;;
54177;SDS011;40085;53.004;6.770;2023-05-10T04:36:27;6.80;;;3.40;;
54177;SDS011;40085;53.004;6.770;2023-05-10T04:38:53;5.82;;;3.88;;
54177;SDS011;40085;53.004;6.770;2023-05-10T04:41:19;5.22;;;3.08;;
54177;SDS011;40085;53.004;6.770;2023-05-10T04:43:45;5.60;;;2.92;;
54177;SDS011;40085;53.004;6.770;2023-05-10T04:46:11;3.90;;;2.60;;
54177;SDS011;40085;53.004;6.770;2023-05-10T04:48:37;4.10;;;2.47;;
54177;SDS011;40085;53.004;6.770;2023-05-10T04:51:03;3.55;;;2.53;;
54177;SDS011;40085;53.004;6.770;2023-05-10T04:53:29;4.30;;;2.72;;
54177;SDS011;40085;53.004;6.770;2023-05-10T04:55:54;4.50;;;2.35;;
54177;SDS011;40085;53.004;6.770;2023-05-10T04:58:20;3.83;;;2.33;;
54177;SDS011;40085;53.004;6.770;2023-05-10T05:00:46;5.00;;;2.35;;
54177;SDS011;40085;53.004;6.770;2023-05-10T05:03:11;3.80;;;2.53;;
54177;SDS011;40085;53.004;6.770;2023-05-10T05:05:37;4.32;;;2.38;;
54177;SDS011;40085;53.004;6.770;2023-05-10T05:08:03;3.90;;;2.17;;
54177;SDS011;40085;53.004;6.770;2023-05-10T05:10:29;3.03;;;2.10;;
54177;SDS011;40085;53.004;6.770;2023-05-10T05:12:55;5.55;;;2.55;;
54177;SDS011;40085;53.004;6.770;2023-05-10T05:15:20;3.90;;;2.25;;
54177;SDS011;40085;53.004;6.770;2023-05-10T05:17:46;3.00;;;2.20;;
54177;SDS011;40085;53.004;6.770;2023-05-10T05:20:12;7.00;;;2.35;;
54177;SDS011;40085;53.004;6.770;2023-05-10T05:22:38;4.03;;;2.42;;
54177;SDS011;40085;53.004;6.770;2023-05-10T05:25:04;3.30;;;2.25;;
54177;SDS011;40085;53.004;6.770;2023-05-10T05:27:30;4.97;;;2.28;;
54177;SDS011;40085;53.004;6.770;2023-05-10T05:29:56;3.65;;;2.45;;
54177;SDS011;40085;53.004;6.770;2023-05-10T05:32:22;2.20;;;1.92;;
54177;SDS011;40085;53.004;6.770;2023-05-10T05:34:49;3.58;;;2.30;;
54177;SDS011;40085;53.004;6.770;2023-05-10T05:37:14;2.55;;;1.83;;
54177;SDS011;40085;53.004;6.770;2023-05-10T05:39:41;3.25;;;1.70;;
54177;SDS011;40085;53.004;6.770;2023-05-10T05:42:07;2.85;;;1.83;;
54177;SDS011;40085;53.004;6.770;2023-05-10T05:44:34;2.70;;;1.63;;
54177;SDS011;40085;53.004;6.770;2023-05-10T05:47:00;3.67;;;2.05;;
54177;SDS011;40085;53.004;6.770;2023-05-10T05:49:25;2.30;;;1.55;;
54177;SDS011;40085;53.004;6.770;2023-05-10T05:51:51;3.53;;;1.73;;
54177;SDS011;40085;53.004;6.770;2023-05-10T05:54:16;3.47;;;2.00;;
54177;SDS011;40085;53.004;6.770;2023-05-10T05:56:42;3.08;;;1.88;;
54177;SDS011;40085;53.004;6.770;2023-05-10T05:59:09;2.25;;;1.50;;
54177;SDS011;40085;53.004;6.770;2023-05-10T06:01:35;2.13;;;1.63;;
54177;SDS011;40085;53.004;6.770;2023-05-10T06:04:01;1.83;;;1.50;;
54177;SDS011;40085;53.004;6.770;2023-05-10T06:06:26;2.22;;;1.48;;
54177;SDS011;40085;53.004;6.770;2023-05-10T06:08:52;1.95;;;1.30;;
54177;SDS011;40085;53.004;6.770;2023-05-10T06:11:18;2.03;;;1.40;;
54177;SDS011;40085;53.004;6.770;2023-05-10T06:13:46;2.15;;;1.50;;
54177;SDS011;40085;53.004;6.770;2023-05-10T06:16:12;3.50;;;1.25;;
54177;SDS011;40085;53.004;6.770;2023-05-10T06:18:38;2.28;;;1.27;;
54177;SDS011;40085;53.004;6.770;2023-05-10T06:21:04;2.58;;;1.25;;
54177;SDS011;40085;53.004;6.770;2023-05-10T06:23:29;2.95;;;1.48;;
54177;SDS011;40085;53.004;6.770;2023-05-10T06:25:55;1.58;;;1.10;;
54177;SDS011;40085;53.004;6.770;2023-05-10T06:28:20;2.53;;;1.30;;
54177;SDS011;40085;53.004;6.770;2023-05-10T06:30:46;1.65;;;1.20;;
54177;SDS011;40085;53.004;6.770;2023-05-10T06:33:11;1.80;;;1.10;;
54177;SDS011;40085;53.004;6.770;2023-05-10T06:35:37;1.23;;;1.00;;
54177;SDS011;40085;53.004;6.770;2023-05-10T06:38:04;1.90;;;1.10;;
54177;SDS011;40085;53.004;6.770;2023-05-10T06:40:29;1.02;;;0.90;;
54177;SDS011;40085;53.004;6.770;2023-05-10T06:42:55;2.60;;;1.00;;
54177;SDS011;40085;53.004;6.770;2023-05-10T06:45:21;1.40;;;1.00;;
54177;SDS011;40085;53.004;6.770;2023-05-10T06:47:46;1.83;;;0.90;;
54177;SDS011;40085;53.004;6.770;2023-05-10T06:50:12;1.55;;;0.98;;
54177;SDS011;40085;53.004;6.770;2023-05-10T06:52:37;1.27;;;1.00;;
54177;SDS011;40085;53.004;6.770;2023-05-10T06:55:03;3.78;;;0.93;;
54177;SDS011;40085;53.004;6.770;2023-05-10T06:57:30;1.58;;;0.93;;
54177;SDS011;40085;53.004;6.770;2023-05-10T06:59:56;1.33;;;0.90;;
54177;SDS011;40085;53.004;6.770;2023-05-10T07:02:26;1.00;;;0.88;;
54177;SDS011;40085;53.004;6.770;2023-05-10T07:04:51;0.55;;;0.47;;
54177;SDS011;40085;53.004;6.770;2023-05-10T07:07:17;0.52;;;0.40;;
54177;SDS011;40085;53.004;6.770;2023-05-10T07:09:43;0.60;;;0.50;;
54177;SDS011;40085;53.004;6.770;2023-05-10T07:12:09;0.75;;;0.22;;
54177;SDS011;40085;53.004;6.770;2023-05-10T07:14:35;0.22;;;0.22;;
54177;SDS011;40085;53.004;6.770;2023-05-10T07:17:01;0.20;;;0.20;;
54177;SDS011;40085;53.004;6.770;2023-05-10T07:19:26;0.15;;;0.15;;
54177;SDS011;40085;53.004;6.770;2023-05-10T07:21:54;0.30;;;0.30;;
54177;SDS011;40085;53.004;6.770;2023-05-10T07:24:20;1.17;;;0.30;;
54177;SDS011;40085;53.004;6.770;2023-05-10T07:26:45;0.20;;;0.20;;
54177;SDS011;40085;53.004;6.770;2023-05-10T07:29:11;0.30;;;0.30;;
54177;SDS011;40085;53.004;6.770;2023-05-10T07:31:37;0.32;;;0.30;;
54177;SDS011;40085;53.004;6.770;2023-05-10T07:34:02;0.30;;;0.30;;
54177;SDS011;40085;53.004;6.770;2023-05-10T07:36:28;0.30;;;0.20;;
54177;SDS011;40085;53.004;6.770;2023-05-10T07:38:53;1.85;;;0.50;;
54177;SDS011;40085;53.004;6.770;2023-05-10T07:41:19;0.20;;;0.20;;
54177;SDS011;40085;53.004;6.770;2023-05-10T07:43:46;0.20;;;0.20;;
54177;SDS011;40085;53.004;6.770;2023-05-10T07:46:11;0.20;;;0.20;;
54177;SDS011;40085;53.004;6.770;2023-05-10T07:48:37;0.10;;;0.10;;
54177;SDS011;40085;53.004;6.770;2023-05-10T07:51:02;0.10;;;0.10;;
54177;SDS011;40085;53.004;6.770;2023-05-10T07:53:28;0.20;;;0.20;;
54177;SDS011;40085;53.004;6.770;2023-05-10T07:55:54;0.10;;;0.10;;
54177;SDS011;40085;53.004;6.770;2023-05-10T07:58:25;0.17;;;0.17;;
54177;SDS011;40085;53.004;6.770;2023-05-10T08:00:51;0.20;;;0.20;;
54177;SDS011;40085;53.004;6.770;2023-05-10T08:03:17;0.17;;;0.17;;
54177;SDS011;40085;53.004;6.770;2023-05-10T08:05:43;0.73;;;0.45;;
54177;SDS011;40085;53.004;6.770;2023-05-10T08:08:08;0.35;;;0.35;;
54177;SDS011;40085;53.004;6.770;2023-05-10T08:10:34;0.30;;;0.30;;
54177;SDS011;40085;53.004;6.770;2023-05-10T08:13:00;0.30;;;0.30;;
54177;SDS011;40085;53.004;6.770;2023-05-10T08:15:25;0.55;;;0.43;;
54177;SDS011;40085;53.004;6.770;2023-05-10T08:17:51;0.90;;;0.55;;
54177;SDS011;40085;53.004;6.770;2023-05-10T08:20:17;1.20;;;0.73;;
54177;SDS011;40085;53.004;6.770;2023-05-10T08:22:44;1.52;;;1.00;;
54177;SDS011;40085;53.004;6.770;2023-05-10T08:25:10;1.20;;;0.90;;
54177;SDS011;40085;53.004;6.770;2023-05-10T08:27:36;1.45;;;0.80;;
54177;SDS011;40085;53.004;6.770;2023-05-10T08:30:02;1.80;;;1.05;;
54177;SDS011;40085;53.004;6.770;2023-05-10T08:32:27;1.83;;;1.25;;
54177;SDS011;40085;53.004;6.770;2023-05-10T08:34:53;1.40;;;1.20;;
54177;SDS011;40085;53.004;6.770;2023-05-10T08:37:19;1.90;;;1.13;;
54177;SDS011;40085;53.004;6.770;2023-05-10T08:39:45;1.88;;;1.27;;
54177;SDS011;40085;53.004;6.770;2023-05-10T08:42:12;1.20;;;0.98;;
54177;SDS011;40085;53.004;6.770;2023-05-10T08:44:44;2.10;;;1.10;;
54177;SDS011;40085;53.004;6.770;2023-05-10T08:47:13;1.23;;;0.82;;
54177;SDS011;40085;53.004;6.770;2023-05-10T08:49:41;1.42;;;1.13;;
54177;SDS011;40085;53.004;6.770;2023-05-10T08:52:08;3.13;;;1.15;;
54177;SDS011;40085;53.004;6.770;2023-05-10T08:54:38;1.20;;;1.10;;
54177;SDS011;40085;53.004;6.770;2023-05-10T08:57:04;1.42;;;1.10;;
54177;SDS011;40085;53.004;6.770;2023-05-10T08:59:30;2.90;;;1.10;;
54177;SDS011;40085;53.004;6.770;2023-05-10T09:01:57;1.38;;;0.98;;
54177;SDS011;40085;53.004;6.770;2023-05-10T09:04:24;2.38;;;1.20;;
54177;SDS011;40085;53.004;6.770;2023-05-10T09:06:50;1.40;;;1.17;;
54177;SDS011;40085;53.004;6.770;2023-05-10T09:09:16;2.08;;;1.42;;
54177;SDS011;40085;53.004;6.770;2023-05-10T09:11:43;2.85;;;1.30;;
54177;SDS011;40085;53.004;6.770;2023-05-10T09:14:09;1.95;;;1.42;;
54177;SDS011;40085;53.004;6.770;2023-05-10T09:16:37;1.95;;;1.50;;
54177;SDS011;40085;53.004;6.770;2023-05-10T09:19:02;1.52;;;1.08;;
54177;SDS011;40085;53.004;6.770;2023-05-10T09:21:28;2.38;;;1.27;;
54177;SDS011;40085;53.004;6.770;2023-05-10T09:23:55;2.30;;;1.38;;
54177;SDS011;40085;53.004;6.770;2023-05-10T09:26:24;2.10;;;1.25;;
54177;SDS011;40085;53.004;6.770;2023-05-10T09:28:53;1.45;;;1.00;;
54177;SDS011;40085;53.004;6.770;2023-05-10T09:31:20;1.45;;;1.08;;
54177;SDS011;40085;53.004;6.770;2023-05-10T09:33:46;3.47;;;1.70;;
54177;SDS011;40085;53.004;6.770;2023-05-10T09:36:13;1.70;;;1.17;;
54177;SDS011;40085;53.004;6.770;2023-05-10T09:38:48;2.63;;;1.58;;
54177;SDS011;40085;53.004;6.770;2023-05-10T09:41:22;1.90;;;1.35;;
54177;SDS011;40085;53.004;6.770;2023-05-10T09:43:48;2.65;;;1.58;;
54177;SDS011;40085;53.004;6.770;2023-05-10T09:46:15;1.55;;;1.15;;
54177;SDS011;40085;53.004;6.770;2023-05-10T09:48:42;2.58;;;1.40;;
54177;SDS011;40085;53.004;6.770;2023-05-10T09:51:09;2.67;;;1.40;;
54177;SDS011;40085;53.004;6.770;2023-05-10T09:53:35;1.95;;;1.10;;
54177;SDS011;40085;53.004;6.770;2023-05-10T09:56:01;1.50;;;1.10;;
54177;SDS011;40085;53.004;6.770;2023-05-10T09:58:27;2.10;;;1.40;;
54177;SDS011;40085;53.004;6.770;2023-05-10T10:00:53;1.83;;;0.95;;
54177;SDS011;40085;53.004;6.770;2023-05-10T10:03:20;1.73;;;0.95;;
54177;SDS011;40085;53.004;6.770;2023-05-10T10:05:46;2.17;;;1.20;;
54177;SDS011;40085;53.004;6.770;2023-05-10T10:08:13;1.73;;;0.95;;
54177;SDS011;40085;53.004;6.770;2023-05-10T10:10:39;2.05;;;0.98;;
54177;SDS011;40085;53.004;6.770;2023-05-10T10:13:05;1.85;;;1.20;;
54177;SDS011;40085;53.004;6.770;2023-05-10T10:15:32;2.42;;;1.40;;
54177;SDS011;40085;53.004;6.770;2023-05-10T10:17:59;2.28;;;1.45;;
54177;SDS011;40085;53.004;6.770;2023-05-10T10:20:25;1.80;;;1.20;;
54177;SDS011;40085;53.004;6.770;2023-05-10T10:22:52;2.47;;;1.30;;
54177;SDS011;40085;53.004;6.770;2023-05-10T10:25:18;1.30;;;1.00;;
54177;SDS011;40085;53.004;6.770;2023-05-10T10:36:11;1.80;;;1.13;;
54177;SDS011;40085;53.004;6.770;2023-05-10T10:38:54;2.58;;;1.70;;
54177;SDS011;40085;53.004;6.770;2023-05-10T10:41:34;2.53;;;1.52;;
54177;SDS011;40085;53.004;6.770;2023-05-10T10:57:56;2.88;;;1.67;;
54177;SDS011;40085;53.004;6.770;2023-05-10T11:00:28;3.17;;;1.80;;
54177;SDS011;40085;53.004;6.770;2023-05-10T11:03:03;4.13;;;1.95;;
54177;SDS011;40085;53.004;6.770;2023-05-10T11:05:40;4.03;;;1.58;;
54177;SDS011;40085;53.004;6.770;2023-05-10T11:10:34;2.90;;;1.80;;
54177;SDS011;40085;53.004;6.770;2023-05-10T11:13:00;3.65;;;2.08;;
54177;SDS011;40085;53.004;6.770;2023-05-10T11:15:37;2.72;;;1.75;;
54177;SDS011;40085;53.004;6.770;2023-05-10T11:18:20;2.85;;;1.80;;
54177;SDS011;40085;53.004;6.770;2023-05-10T11:20:50;3.33;;;1.98;;
54177;SDS011;40085;53.004;6.770;2023-05-10T11:23:29;4.00;;;2.20;;
54177;SDS011;40085;53.004;6.770;2023-05-10T11:26:12;5.78;;;1.50;;
54177;SDS011;40085;53.004;6.770;2023-05-10T11:28:45;3.35;;;2.00;;
54177;SDS011;40085;53.004;6.770;2023-05-10T11:31:15;2.92;;;1.90;;
54177;SDS011;40085;53.004;6.770;2023-05-10T11:33:45;4.82;;;2.40;;
54177;SDS011;40085;53.004;6.770;2023-05-10T11:36:13;5.22;;;2.25;;
54177;SDS011;40085;53.004;6.770;2023-05-10T11:38:40;4.35;;;1.95;;
54177;SDS011;40085;53.004;6.770;2023-05-10T11:41:07;5.40;;;2.05;;
54177;SDS011;40085;53.004;6.770;2023-05-10T11:43:34;5.00;;;2.10;;
54177;SDS011;40085;53.004;6.770;2023-05-10T11:46:01;5.63;;;1.95;;
54177;SDS011;40085;53.004;6.770;2023-05-10T11:48:29;3.45;;;2.33;;
54177;SDS011;40085;53.004;6.770;2023-05-10T11:50:55;3.40;;;1.88;;
54177;SDS011;40085;53.004;6.770;2023-05-10T11:53:22;3.90;;;2.15;;
54177;SDS011;40085;53.004;6.770;2023-05-10T11:55:47;5.75;;;2.60;;
54177;SDS011;40085;53.004;6.770;2023-05-10T11:58:13;6.20;;;2.15;;
54177;SDS011;40085;53.004;6.770;2023-05-10T12:00:39;2.90;;;1.80;;
54177;SDS011;40085;53.004;6.770;2023-05-10T12:03:05;3.80;;;1.95;;
54177;SDS011;40085;53.004;6.770;2023-05-10T12:05:33;5.25;;;2.25;;
54177;SDS011;40085;53.004;6.770;2023-05-10T12:08:13;3.42;;;2.15;;
54177;SDS011;40085;53.004;6.770;2023-05-10T12:10:39;3.17;;;1.90;;
54177;SDS011;40085;53.004;6.770;2023-05-10T12:13:05;3.53;;;1.88;;
54177;SDS011;40085;53.004;6.770;2023-05-10T12:15:35;5.83;;;2.53;;
54177;SDS011;40085;53.004;6.770;2023-05-10T12:18:01;3.40;;;1.77;;
54177;SDS011;40085;53.004;6.770;2023-05-10T12:20:27;5.32;;;2.17;;
54177;SDS011;40085;53.004;6.770;2023-05-10T12:22:54;2.38;;;1.60;;
54177;SDS011;40085;53.004;6.770;2023-05-10T12:25:21;2.97;;;1.83;;
54177;SDS011;40085;53.004;6.770;2023-05-10T12:27:51;3.70;;;1.95;;
54177;SDS011;40085;53.004;6.770;2023-05-10T12:30:19;5.97;;;2.17;;
54177;SDS011;40085;53.004;6.770;2023-05-10T12:32:48;5.07;;;2.10;;
54177;SDS011;40085;53.004;6.770;2023-05-10T12:35:14;3.70;;;2.22;;
54177;SDS011;40085;53.004;6.770;2023-05-10T12:37:41;3.47;;;1.92;;
54177;SDS011;40085;53.004;6.770;2023-05-10T12:40:08;4.43;;;1.58;;
54177;SDS011;40085;53.004;6.770;2023-05-10T12:42:36;4.30;;;2.03;;
54177;SDS011;40085;53.004;6.770;2023-05-10T12:45:04;2.70;;;1.65;;
54177;SDS011;40085;53.004;6.770;2023-05-10T12:47:31;2.95;;;1.73;;
54177;SDS011;40085;53.004;6.770;2023-05-10T12:49:57;4.78;;;2.22;;
54177;SDS011;40085;53.004;6.770;2023-05-10T12:52:25;3.63;;;2.05;;
54177;SDS011;40085;53.004;6.770;2023-05-10T12:54:51;3.63;;;2.25;;
54177;SDS011;40085;53.004;6.770;2023-05-10T12:57:17;2.83;;;1.67;;
54177;SDS011;40085;53.004;6.770;2023-05-10T12:59:43;5.13;;;2.55;;
54177;SDS011;40085;53.004;6.770;2023-05-10T13:02:08;3.17;;;2.13;;
54177;SDS011;40085;53.004;6.770;2023-05-10T13:04:34;5.13;;;1.90;;
54177;SDS011;40085;53.004;6.770;2023-05-10T13:07:04;4.35;;;1.90;;
54177;SDS011;40085;53.004;6.770;2023-05-10T13:09:30;3.88;;;1.77;;
54177;SDS011;40085;53.004;6.770;2023-05-10T13:11:56;2.75;;;1.60;;
54177;SDS011;40085;53.004;6.770;2023-05-10T13:14:21;4.35;;;2.08;;
54177;SDS011;40085;53.004;6.770;2023-05-10T13:16:47;3.47;;;1.92;;
54177;SDS011;40085;53.004;6.770;2023-05-10T13:19:13;4.30;;;2.25;;
54177;SDS011;40085;53.004;6.770;2023-05-10T13:21:39;5.57;;;2.25;;
54177;SDS011;40085;53.004;6.770;2023-05-10T13:24:06;3.58;;;2.08;;
54177;SDS011;40085;53.004;6.770;2023-05-10T13:26:32;6.55;;;2.58;;
54177;SDS011;40085;53.004;6.770;2023-05-10T13:28:58;6.28;;;2.47;;
54177;SDS011;40085;53.004;6.770;2023-05-10T13:31:23;4.38;;;2.00;;
54177;SDS011;40085;53.004;6.770;2023-05-10T13:33:49;4.38;;;2.10;;
54177;SDS011;40085;53.004;6.770;2023-05-10T13:36:15;6.22;;;2.30;;
54177;SDS011;40085;53.004;6.770;2023-05-10T13:38:40;9.43;;;2.67;;
54177;SDS011;40085;53.004;6.770;2023-05-10T13:41:06;4.30;;;1.92;;
54177;SDS011;40085;53.004;6.770;2023-05-10T13:43:31;4.25;;;2.20;;
54177;SDS011;40085;53.004;6.770;2023-05-10T13:45:57;3.85;;;1.83;;
54177;SDS011;40085;53.004;6.770;2023-05-10T13:48:23;3.65;;;1.85;;
54177;SDS011;40085;53.004;6.770;2023-05-10T13:50:48;6.90;;;2.20;;
54177;SDS011;40085;53.004;6.770;2023-05-10T13:53:14;4.15;;;2.35;;
54177;SDS011;40085;53.004;6.770;2023-05-10T13:55:40;6.50;;;2.25;;
54177;SDS011;40085;53.004;6.770;2023-05-10T13:58:06;4.50;;;2.33;;
54177;SDS011;40085;53.004;6.770;2023-05-10T14:00:32;4.45;;;2.25;;
54177;SDS011;40085;53.004;6.770;2023-05-10T14:02:57;4.55;;;2.35;;
54177;SDS011;40085;53.004;6.770;2023-05-10T14:05:23;6.25;;;2.10;;
54177;SDS011;40085;53.004;6.770;2023-05-10T14:07:49;5.05;;;2.08;;
54177;SDS011;40085;53.004;6.770;2023-05-10T14:10:15;2.85;;;1.90;;
54177;SDS011;40085;53.004;6.770;2023-05-10T14:12:41;3.88;;;1.77;;
54177;SDS011;40085;53.004;6.770;2023-05-10T14:15:07;4.20;;;2.33;;
54177;SDS011;40085;53.004;6.770;2023-05-10T14:17:35;3.72;;;1.98;;
54177;SDS011;40085;53.004;6.770;2023-05-10T14:20:01;8.02;;;2.17;;
54177;SDS011;40085;53.004;6.770;2023-05-10T14:22:27;4.47;;;2.00;;
54177;SDS011;40085;53.004;6.770;2023-05-10T14:24:53;5.18;;;2.25;;
54177;SDS011;40085;53.004;6.770;2023-05-10T14:27:18;6.72;;;2.58;;
54177;SDS011;40085;53.004;6.770;2023-05-10T14:29:44;3.95;;;2.05;;
54177;SDS011;40085;53.004;6.770;2023-05-10T14:32:10;5.63;;;2.80;;
54177;SDS011;40085;53.004;6.770;2023-05-10T14:34:35;4.25;;;2.35;;
54177;SDS011;40085;53.004;6.770;2023-05-10T14:37:01;5.18;;;2.25;;
54177;SDS011;40085;53.004;6.770;2023-05-10T14:39:27;3.30;;;2.10;;
54177;SDS011;40085;53.004;6.770;2023-05-10T14:41:55;3.50;;;2.30;;
54177;SDS011;40085;53.004;6.770;2023-05-10T14:44:20;4.50;;;2.28;;
54177;SDS011;40085;53.004;6.770;2023-05-10T14:46:46;4.38;;;2.45;;
54177;SDS011;40085;53.004;6.770;2023-05-10T14:49:13;6.65;;;2.58;;
54177;SDS011;40085;53.004;6.770;2023-05-10T14:51:38;5.10;;;2.58;;
54177;SDS011;40085;53.004;6.770;2023-05-10T14:54:04;6.43;;;2.50;;
54177;SDS011;40085;53.004;6.770;2023-05-10T14:56:30;3.85;;;1.85;;
54177;SDS011;40085;53.004;6.770;2023-05-10T14:58:56;5.15;;;2.15;;
54177;SDS011;40085;53.004;6.770;2023-05-10T15:01:22;6.00;;;2.28;;
54177;SDS011;40085;53.004;6.770;2023-05-10T15:03:47;3.15;;;1.67;;
54177;SDS011;40085;53.004;6.770;2023-05-10T15:06:13;4.13;;;1.75;;
54177;SDS011;40085;53.004;6.770;2023-05-10T15:08:41;3.58;;;1.33;;
54177;SDS011;40085;53.004;6.770;2023-05-10T15:11:06;8.57;;;1.88;;
54177;SDS011;40085;53.004;6.770;2023-05-10T15:13:32;2.70;;;1.42;;
54177;SDS011;40085;53.004;6.770;2023-05-10T15:15:58;2.30;;;1.67;;
54177;SDS011;40085;53.004;6.770;2023-05-10T15:18:23;5.68;;;1.75;;
54177;SDS011;40085;53.004;6.770;2023-05-10T15:20:49;2.88;;;1.23;;
54177;SDS011;40085;53.004;6.770;2023-05-10T15:23:15;2.53;;;1.65;;
54177;SDS011;40085;53.004;6.770;2023-05-10T15:25:40;2.60;;;1.65;;
54177;SDS011;40085;53.004;6.770;2023-05-10T15:28:06;2.75;;;1.50;;
54177;SDS011;40085;53.004;6.770;2023-05-10T15:30:31;2.92;;;1.88;;
54177;SDS011;40085;53.004;6.770;2023-05-10T15:32:57;3.85;;;1.52;;
54177;SDS011;40085;53.004;6.770;2023-05-10T15:35:23;3.15;;;1.45;;